createdAt,value
2023-03-12T00:02:09.457Z,2.90
2023-03-12T00:04:36.055Z,2.90
2023-03-12T00:07:05.713Z,2.90
2023-03-12T00:09:37.235Z,3.00
2023-03-12T00:12:05.136Z,2.90
2023-03-12T00:14:32.734Z,2.90
2023-03-12T00:16:59.215Z,2.90
2023-03-12T00:19:25.989Z,2.90
2023-03-12T00:21:52.465Z,2.80
2023-03-12T00:24:18.986Z,2.70
2023-03-12T00:26:45.482Z,2.50
2023-03-12T00:29:12.003Z,2.30
2023-03-12T00:31:38.492Z,2.30
2023-03-12T00:34:05.004Z,2.40
2023-03-12T00:36:32.333Z,2.40
2023-03-12T00:39:00.601Z,2.30
2023-03-12T00:41:28.660Z,2.00
2023-03-12T00:43:55.290Z,1.90
2023-03-12T00:46:22.225Z,1.90
2023-03-12T00:48:48.836Z,1.90
2023-03-12T00:51:15.616Z,1.80
2023-03-12T00:53:42.198Z,1.70
2023-03-12T00:56:08.888Z,1.70
2023-03-12T00:58:35.395Z,1.70
2023-03-12T01:01:02.876Z,1.70
2023-03-12T01:03:29.403Z,1.70
2023-03-12T01:05:55.869Z,1.60
2023-03-12T01:08:23.510Z,1.50
2023-03-12T01:10:50.994Z,1.60
2023-03-12T01:13:17.537Z,1.60
2023-03-12T01:15:44.050Z,1.40
2023-03-12T01:18:10.541Z,1.20
2023-03-12T01:20:37.324Z,1.20
2023-03-12T01:23:04.042Z,1.10
2023-03-12T01:25:30.584Z,1.20
2023-03-12T01:27:57.058Z,1.20
2023-03-12T01:30:23.562Z,1.30
2023-03-12T01:32:51.950Z,1.10
2023-03-12T01:35:18.937Z,1.00
2023-03-12T01:37:45.456Z,1.00
2023-03-12T01:40:20.131Z,0.90
2023-03-12T01:42:57.618Z,0.80
2023-03-12T01:46:45.690Z,0.80
2023-03-12T01:49:34.153Z,0.70
2023-03-12T01:52:10.461Z,0.70
2023-03-12T01:55:09.520Z,0.60
2023-03-12T01:57:57.888Z,0.60
2023-03-12T02:00:26.854Z,0.80
2023-03-12T02:02:59.453Z,0.80
2023-03-12T02:05:42.759Z,0.80
2023-03-12T02:08:14.137Z,0.80
2023-03-12T02:10:40.739Z,0.30
2023-03-12T02:13:07.502Z,0.30
2023-03-12T02:15:36.535Z,0.10
2023-03-12T02:18:05.256Z,0.10
2023-03-12T02:22:24.372Z,0.10
2023-03-12T02:26:07.562Z,0.30
2023-03-12T02:28:41.915Z,0.30
2023-03-12T02:31:11.990Z,0.30
2023-03-12T02:33:38.744Z,0.30
2023-03-12T02:36:05.680Z,0.40
2023-03-12T02:38:48.164Z,0.40
2023-03-12T02:41:29.915Z,0.50
2023-03-12T02:44:57.524Z,0.40
2023-03-12T02:47:24.026Z,0.30
2023-03-12T02:49:51.892Z,0.10
2023-03-12T02:52:18.397Z,0.00
2023-03-12T02:54:44.853Z,0.10
2023-03-12T02:57:11.316Z,-0.10
2023-03-12T02:59:37.811Z,-0.30
2023-03-12T03:02:04.425Z,-0.20
2023-03-12T03:04:33.336Z,-0.20
2023-03-12T03:07:00.377Z,-0.10
2023-03-12T03:09:26.846Z,0.00
2023-03-12T03:11:53.355Z,0.10
2023-03-12T03:14:19.906Z,-0.10
2023-03-12T03:16:46.380Z,-0.30
2023-03-12T03:19:13.002Z,-0.40
2023-03-12T03:21:39.547Z,-0.40
2023-03-12T03:24:06.560Z,-0.40
2023-03-12T03:26:33.053Z,-0.40
2023-03-12T03:28:59.645Z,-0.40
2023-03-12T03:31:26.226Z,-0.50
2023-03-12T03:33:52.854Z,-0.60
2023-03-12T03:36:19.335Z,-0.70
2023-03-12T03:38:48.599Z,-0.90
2023-03-12T03:41:20.123Z,-0.70
2023-03-12T03:43:47.137Z,-0.70
2023-03-12T03:46:14.859Z,-0.70
2023-03-12T03:48:41.665Z,-0.60
2023-03-12T03:51:10.862Z,-0.50
2023-03-12T03:53:37.358Z,-0.60
2023-03-12T03:56:11.288Z,-0.80
2023-03-12T03:58:38.190Z,-0.90
2023-03-12T04:01:05.531Z,-1.20
2023-03-12T04:03:32.850Z,-1.20
2023-03-12T04:06:03.107Z,-1.10
2023-03-12T04:08:29.817Z,-1.10
2023-03-12T04:10:56.288Z,-1.10
2023-03-12T04:13:22.772Z,-1.10
2023-03-12T04:15:53.069Z,-1.10
2023-03-12T04:18:19.677Z,-1.20
2023-03-12T04:20:46.344Z,-1.20
2023-03-12T04:23:12.810Z,-1.20
2023-03-12T04:25:39.494Z,-1.20
2023-03-12T04:28:06.696Z,-1.10
2023-03-12T04:30:33.254Z,-1.00
2023-03-12T04:32:59.737Z,-1.00
2023-03-12T04:35:26.211Z,-1.00
2023-03-12T04:37:52.699Z,-1.00
2023-03-12T04:40:19.278Z,-1.10
2023-03-12T04:42:45.972Z,-1.10
2023-03-12T04:45:12.549Z,-1.20
2023-03-12T04:47:39.136Z,-1.30
2023-03-12T04:50:06.735Z,-1.40
2023-03-12T04:52:33.257Z,-1.30
2023-03-12T04:54:59.783Z,-1.40
2023-03-12T04:57:26.477Z,-1.50
2023-03-12T04:59:53.349Z,-1.50
2023-03-12T05:02:19.839Z,-1.40
2023-03-12T05:04:46.305Z,-1.30
2023-03-12T05:07:12.775Z,-1.50
2023-03-12T05:09:39.267Z,-1.70
2023-03-12T05:12:06.416Z,-1.60
2023-03-12T05:14:32.902Z,-1.50
2023-03-12T05:16:59.391Z,-1.70
2023-03-12T05:19:25.852Z,-1.90
2023-03-12T05:21:52.312Z,-1.70
2023-03-12T05:24:18.802Z,-1.80
2023-03-12T05:26:45.274Z,-1.70
2023-03-12T05:29:11.880Z,-1.50
2023-03-12T05:31:38.449Z,-1.50
2023-03-12T05:34:05.029Z,-1.70
2023-03-12T05:36:31.524Z,-1.80
2023-03-12T05:38:58.159Z,-1.60
2023-03-12T05:41:28.212Z,-1.70
2023-03-12T05:43:56.544Z,-1.80
2023-03-12T05:46:26.099Z,-1.70
2023-03-12T05:48:53.031Z,-1.60
2023-03-12T05:51:20.363Z,-1.50
2023-03-12T05:53:47.056Z,-1.60
2023-03-12T05:56:16.883Z,-1.60
2023-03-12T05:58:44.589Z,-1.50
2023-03-12T06:01:22.113Z,-1.30
2023-03-12T06:03:49.255Z,-1.40
2023-03-12T06:06:16.148Z,-1.30
2023-03-12T06:08:43.245Z,-1.30
2023-03-12T06:11:10.769Z,-1.20
2023-03-12T06:13:37.404Z,-1.10
2023-03-12T06:16:06.619Z,-0.90
2023-03-12T06:18:34.543Z,-0.70
2023-03-12T06:21:20.548Z,-0.60
2023-03-12T06:23:48.616Z,-0.40
2023-03-12T06:26:16.208Z,-0.30
2023-03-12T06:28:44.083Z,-0.20
2023-03-12T06:31:10.660Z,-0.10
2023-03-12T06:33:37.783Z,0.10
2023-03-12T06:36:08.780Z,0.10
2023-03-12T06:38:35.898Z,0.30
2023-03-12T06:41:07.556Z,0.40
2023-03-12T06:43:36.559Z,0.60
2023-03-12T06:46:05.842Z,0.90
2023-03-12T06:48:36.033Z,1.10
2023-03-12T06:51:04.180Z,1.50
2023-03-12T06:53:31.620Z,1.70
2023-03-12T06:55:58.578Z,1.80
2023-03-12T06:58:25.339Z,2.10
2023-03-12T07:00:53.408Z,2.30
2023-03-12T07:03:20.474Z,2.30
2023-03-12T07:05:49.006Z,2.40
2023-03-12T07:08:17.953Z,2.40
2023-03-12T07:10:45.700Z,2.50
2023-03-12T07:13:12.489Z,2.70
2023-03-12T07:15:38.981Z,2.80
2023-03-12T07:18:07.868Z,2.90
2023-03-12T07:20:41.644Z,3.00
2023-03-12T07:23:08.739Z,3.30
2023-03-12T07:25:40.622Z,3.40
2023-03-12T07:28:08.460Z,3.50
2023-03-12T07:30:35.061Z,3.70
2023-03-12T07:33:08.576Z,3.80
2023-03-12T07:35:38.094Z,4.10
2023-03-12T07:38:06.355Z,4.20
2023-03-12T07:40:33.487Z,4.40
2023-03-12T07:43:00.221Z,4.50
2023-03-12T07:45:26.844Z,4.60
2023-03-12T07:47:53.409Z,4.70
2023-03-12T07:50:20.326Z,4.90
2023-03-12T07:52:47.117Z,5.00
2023-03-12T07:55:13.905Z,5.20
2023-03-12T07:57:40.589Z,5.20
2023-03-12T08:00:09.701Z,5.30
2023-03-12T08:02:36.806Z,5.50
2023-03-12T08:05:03.739Z,5.70
2023-03-12T08:07:31.709Z,5.70
2023-03-12T08:10:03.739Z,5.60
2023-03-12T08:12:30.464Z,5.70
2023-03-12T08:14:57.139Z,5.80
2023-03-12T08:17:23.690Z,5.80
2023-03-12T08:19:50.201Z,5.90
2023-03-12T08:22:16.755Z,5.90
2023-03-12T08:24:44.151Z,6.00
2023-03-12T08:27:11.635Z,6.10
2023-03-12T08:29:39.641Z,6.10
2023-03-12T08:32:07.438Z,6.30
2023-03-12T08:34:34.881Z,6.30
2023-03-12T08:37:02.181Z,6.40
2023-03-12T08:39:29.572Z,6.50
2023-03-12T08:41:56.059Z,6.40
2023-03-12T08:44:23.867Z,6.50
2023-03-12T08:46:51.826Z,6.40
2023-03-12T08:49:20.120Z,6.50
2023-03-12T08:51:46.997Z,6.50
2023-03-12T08:54:13.528Z,6.60
2023-03-12T08:56:43.053Z,6.60
2023-03-12T08:59:10.956Z,6.60
2023-03-12T09:01:39.812Z,6.80
2023-03-12T09:04:07.105Z,6.80
2023-03-12T09:06:34.704Z,6.90
2023-03-12T09:09:05.589Z,7.30
2023-03-12T09:11:33.712Z,7.50
2023-03-12T09:14:46.379Z,7.70
2023-03-12T09:17:29.769Z,7.80
2023-03-12T09:19:56.232Z,7.70
2023-03-12T09:22:22.728Z,7.80
2023-03-12T09:24:49.279Z,7.70
2023-03-12T09:27:15.758Z,7.80
2023-03-12T09:29:58.759Z,7.80
2023-03-12T09:32:26.798Z,7.90
2023-03-12T09:34:53.693Z,8.10
2023-03-12T09:37:22.390Z,8.10
2023-03-12T09:39:51.398Z,8.10
2023-03-12T09:42:44.890Z,8.10
2023-03-12T09:45:27.516Z,8.10
2023-03-12T09:48:02.330Z,8.10
2023-03-12T09:50:43.371Z,8.20
2023-03-12T09:53:40.442Z,8.20
2023-03-12T09:56:14.784Z,8.20
2023-03-12T09:58:47.372Z,8.40
2023-03-12T10:05:50.148Z,8.30
2023-03-12T10:09:48.612Z,8.40
2023-03-12T10:13:47.875Z,8.50
2023-03-12T10:17:06.754Z,8.70
2023-03-12T10:20:15.246Z,8.70
2023-03-12T10:26:55.594Z,8.70
2023-03-12T10:29:30.165Z,8.70
2023-03-12T10:32:30.215Z,8.70
2023-03-12T10:35:04.231Z,8.80
2023-03-12T10:37:43.007Z,8.90
2023-03-12T10:40:20.039Z,9.00
2023-03-12T10:42:47.734Z,9.10
2023-03-12T10:47:27.612Z,9.20
2023-03-12T10:49:54.197Z,9.30
2023-03-12T10:52:22.838Z,9.10
2023-03-12T10:54:52.840Z,8.90
2023-03-12T10:57:21.434Z,8.90
2023-03-12T10:59:50.557Z,8.80
2023-03-12T11:02:42.745Z,8.80
2023-03-12T11:05:29.676Z,8.70
2023-03-12T11:07:58.936Z,8.90
2023-03-12T11:10:45.964Z,9.00
2023-03-12T11:13:37.626Z,9.10
2023-03-12T11:16:30.131Z,9.30
2023-03-12T11:19:04.892Z,9.60
2023-03-12T11:21:37.422Z,9.70
2023-03-12T11:24:21.923Z,10.00
2023-03-12T11:27:06.749Z,10.30
2023-03-12T11:29:42.781Z,10.50
2023-03-12T11:33:03.304Z,10.40
2023-03-12T11:36:06.323Z,10.50
2023-03-12T11:38:56.333Z,10.50
2023-03-12T11:42:25.212Z,10.60
2023-03-12T11:45:28.828Z,10.70
2023-03-12T11:48:53.433Z,10.50
2023-03-12T11:53:28.186Z,10.50
2023-03-12T11:56:38.484Z,10.60
2023-03-12T12:01:55.837Z,10.40
2023-03-12T12:06:26.854Z,10.20
2023-03-12T12:09:17.640Z,10.00
2023-03-12T12:13:31.691Z,10.10
2023-03-12T12:17:01.414Z,10.30
2023-03-12T12:20:42.796Z,10.70
2023-03-12T12:28:59.943Z,10.40
2023-03-12T12:31:45.541Z,10.30
2023-03-12T12:34:51.200Z,10.30
2023-03-12T12:37:52.589Z,10.50
2023-03-12T12:40:44.439Z,10.80
2023-03-12T12:43:29.961Z,11.10
2023-03-12T12:46:16.395Z,11.30
2023-03-12T12:49:01.482Z,11.30
2023-03-12T12:51:39.903Z,11.50
2023-03-12T12:56:23.580Z,11.60
2023-03-12T12:59:49.755Z,11.80
2023-03-12T13:02:28.106Z,11.90
2023-03-12T13:04:58.685Z,11.80
2023-03-12T13:07:33.447Z,11.80
2023-03-12T13:10:06.377Z,11.60
2023-03-12T13:12:52.118Z,11.60
2023-03-12T13:15:39.315Z,11.50
2023-03-12T13:18:30.579Z,11.50
2023-03-12T13:22:50.329Z,11.30
2023-03-12T13:26:22.692Z,11.20
2023-03-12T13:31:48.491Z,11.40
2023-03-12T13:34:45.770Z,11.60
2023-03-12T13:37:47.952Z,11.40
2023-03-12T13:42:39.732Z,11.20
2023-03-12T13:45:30.999Z,11.30
2023-03-12T13:48:02.110Z,11.20
2023-03-12T13:50:31.951Z,11.10
2023-03-12T13:53:07.077Z,11.10
2023-03-12T13:55:36.843Z,11.10
2023-03-12T13:58:20.608Z,10.90
2023-03-12T14:01:23.633Z,11.00
2023-03-12T14:03:57.397Z,10.80
2023-03-12T14:06:29.704Z,10.50
2023-03-12T14:11:00.503Z,10.50
2023-03-12T14:16:50.797Z,10.50
2023-03-12T14:19:22.891Z,10.50
2023-03-12T14:21:52.184Z,10.70
2023-03-12T14:24:33.110Z,10.90
2023-03-12T14:27:03.776Z,11.00
2023-03-12T14:29:47.971Z,11.00
2023-03-12T14:32:22.134Z,10.90
2023-03-12T14:35:07.531Z,11.00
2023-03-12T14:37:50.688Z,10.90
2023-03-12T14:40:57.304Z,10.90
2023-03-12T14:43:37.190Z,10.80
2023-03-12T14:46:15.028Z,10.70
2023-03-12T14:48:41.606Z,10.70
2023-03-12T14:51:24.237Z,10.90
2023-03-12T14:53:52.418Z,10.80
2023-03-12T14:56:34.536Z,10.70
2023-03-12T14:59:30.582Z,10.50
2023-03-12T15:02:12.772Z,10.40
2023-03-12T15:04:40.706Z,10.30
2023-03-12T15:07:13.264Z,10.40
2023-03-12T15:09:45.511Z,10.40
2023-03-12T15:12:30.926Z,10.30
2023-03-12T15:15:07.622Z,10.30
2023-03-12T15:17:35.095Z,10.20
2023-03-12T15:20:08.474Z,10.20
2023-03-12T15:22:36.160Z,10.10
2023-03-12T15:25:22.454Z,10.20
2023-03-12T15:27:59.694Z,10.10
2023-03-12T15:30:28.679Z,10.00
2023-03-12T15:33:43.040Z,10.00
2023-03-12T15:36:32.701Z,10.20
2023-03-12T15:39:12.210Z,10.00
2023-03-12T15:41:48.861Z,10.00
2023-03-12T15:44:24.881Z,10.00
2023-03-12T15:47:10.788Z,9.90
2023-03-12T15:49:39.052Z,9.90
2023-03-12T15:52:34.471Z,9.70
2023-03-12T15:55:27.238Z,9.70
2023-03-12T15:57:56.251Z,9.60
2023-03-12T16:00:43.918Z,9.60
2023-03-12T16:03:19.276Z,9.50
2023-03-12T16:05:47.879Z,9.50
2023-03-12T16:08:20.972Z,9.50
2023-03-12T16:10:50.955Z,9.50
2023-03-12T16:13:21.203Z,9.50
2023-03-12T16:15:48.415Z,9.50
2023-03-12T16:18:19.117Z,9.50
2023-03-12T16:20:46.786Z,9.40
2023-03-12T16:23:14.005Z,9.30
2023-03-12T16:25:52.166Z,9.20
2023-03-12T16:28:21.644Z,9.20
2023-03-12T16:30:48.636Z,9.20
2023-03-12T16:33:21.875Z,9.10
2023-03-12T16:35:48.478Z,9.10
2023-03-12T16:38:15.352Z,9.00
2023-03-12T16:40:48.846Z,9.00
2023-03-12T16:43:28.424Z,8.90
2023-03-12T16:45:55.767Z,8.90
2023-03-12T16:48:23.771Z,8.70
2023-03-12T16:50:56.823Z,8.60
2023-03-12T16:53:24.534Z,8.40
2023-03-12T16:56:01.038Z,8.30
2023-03-12T16:58:29.525Z,8.10
2023-03-12T17:00:57.213Z,7.90
2023-03-12T17:03:37.098Z,7.80
2023-03-12T17:06:06.703Z,7.80
2023-03-12T17:08:35.151Z,7.80
2023-03-12T17:11:01.656Z,7.60
2023-03-12T17:13:29.243Z,7.40
2023-03-12T17:15:56.700Z,7.30
2023-03-12T17:18:23.839Z,7.30
2023-03-12T17:20:51.044Z,7.20
2023-03-12T17:23:18.433Z,7.00
2023-03-12T17:25:45.783Z,6.80
2023-03-12T17:28:14.509Z,6.60
2023-03-12T17:30:41.634Z,6.50
2023-03-12T17:33:14.988Z,6.40
2023-03-12T17:35:41.866Z,6.30
2023-03-12T17:38:09.489Z,6.20
2023-03-12T17:40:43.047Z,6.00
2023-03-12T17:43:09.847Z,5.80
2023-03-12T17:45:36.605Z,5.90
2023-03-12T17:48:03.473Z,6.10
2023-03-12T17:50:29.974Z,6.10
2023-03-12T17:52:56.431Z,6.10
2023-03-12T17:55:22.921Z,6.00
2023-03-12T17:57:49.704Z,5.80
2023-03-12T18:00:17.021Z,5.60
2023-03-12T18:02:43.845Z,5.60
2023-03-12T18:05:11.271Z,5.40
2023-03-12T18:07:38.026Z,5.10
2023-03-12T18:10:07.987Z,5.00
2023-03-12T18:12:37.131Z,5.00
2023-03-12T18:15:06.229Z,4.90
2023-03-12T18:17:32.730Z,4.80
2023-03-12T18:19:59.188Z,4.70
2023-03-12T18:22:25.675Z,4.70
2023-03-12T18:24:52.136Z,4.60
2023-03-12T18:27:18.638Z,4.60
2023-03-12T18:29:45.104Z,4.50
2023-03-12T18:32:11.556Z,4.40
2023-03-12T18:34:41.386Z,4.10
2023-03-12T18:37:08.067Z,4.00
2023-03-12T18:39:34.546Z,4.10
2023-03-12T18:42:01.067Z,4.00
2023-03-12T18:44:27.551Z,4.20
2023-03-12T18:46:54.241Z,4.40
2023-03-12T18:49:21.019Z,4.50
2023-03-12T18:51:52.625Z,4.60
2023-03-12T18:54:19.202Z,4.60
2023-03-12T18:56:46.010Z,4.50
2023-03-12T18:59:13.844Z,4.60
2023-03-12T19:01:41.889Z,4.50
2023-03-12T19:04:10.723Z,4.20
2023-03-12T19:06:49.823Z,4.00
2023-03-12T19:09:17.800Z,3.80
2023-03-12T19:11:47.165Z,3.70
2023-03-12T19:14:13.734Z,3.50
2023-03-12T19:16:40.340Z,3.50
2023-03-12T19:19:09.658Z,3.70
2023-03-12T19:21:36.135Z,3.80
2023-03-12T19:24:02.657Z,3.70
2023-03-12T19:26:29.121Z,3.40
2023-03-12T19:28:55.608Z,3.40
2023-03-12T19:31:22.083Z,3.40
2023-03-12T19:33:48.594Z,3.40
2023-03-12T19:36:15.080Z,3.40
2023-03-12T19:38:41.575Z,3.50
2023-03-12T19:41:08.558Z,3.60
2023-03-12T19:43:36.393Z,3.70
2023-03-12T19:46:03.691Z,3.80
2023-03-12T19:48:30.288Z,4.00
2023-03-12T19:50:56.822Z,4.10
2023-03-12T19:53:24.050Z,4.10
2023-03-12T19:55:51.232Z,4.20
2023-03-12T19:58:17.772Z,3.90
2023-03-12T20:00:44.414Z,3.80
2023-03-12T20:03:11.262Z,3.60
2023-03-12T20:05:37.949Z,3.60
2023-03-12T20:08:04.599Z,3.60
2023-03-12T20:10:31.643Z,3.60
2023-03-12T20:12:58.160Z,3.70
2023-03-12T20:15:24.721Z,3.70
2023-03-12T20:17:53.916Z,3.70
2023-03-12T20:20:20.409Z,3.80
2023-03-12T20:22:46.898Z,3.80
2023-03-12T20:25:13.624Z,3.90
2023-03-12T20:27:40.145Z,3.80
2023-03-12T20:30:08.059Z,3.60
2023-03-12T20:32:34.653Z,3.40
2023-03-12T20:35:01.148Z,3.20
2023-03-12T20:37:27.679Z,3.20
2023-03-12T20:39:54.167Z,3.40
2023-03-12T20:42:20.663Z,3.50
2023-03-12T20:44:47.150Z,3.20
2023-03-12T20:47:13.607Z,3.10
2023-03-12T20:49:40.090Z,2.90
2023-03-12T20:52:06.540Z,2.80
2023-03-12T20:54:33.041Z,2.60
2023-03-12T20:56:59.501Z,2.50
2023-03-12T20:59:25.975Z,2.40
2023-03-12T21:01:52.444Z,2.50
2023-03-12T21:04:18.979Z,2.50
2023-03-12T21:06:46.811Z,2.40
2023-03-12T21:09:13.305Z,2.40
2023-03-12T21:11:39.766Z,2.60
2023-03-12T21:14:06.290Z,2.70
2023-03-12T21:16:32.822Z,2.70
2023-03-12T21:19:00.292Z,2.60
2023-03-12T21:21:27.665Z,2.50
2023-03-12T21:23:54.247Z,2.30
2023-03-12T21:26:21.178Z,2.20
2023-03-12T21:28:47.660Z,2.20
2023-03-12T21:31:16.860Z,2.30
2023-03-12T21:33:43.500Z,2.30
2023-03-12T21:36:13.422Z,2.40
2023-03-12T21:38:42.179Z,2.70
2023-03-12T21:41:12.198Z,2.60
2023-03-12T21:43:39.551Z,2.60
2023-03-12T21:46:09.463Z,2.70
2023-03-12T21:48:36.539Z,2.70
2023-03-12T21:51:06.143Z,3.00
2023-03-12T21:53:33.249Z,3.10
2023-03-12T21:56:01.392Z,3.20
2023-03-12T21:58:29.524Z,3.10
2023-03-12T22:01:09.795Z,2.90
2023-03-12T22:03:37.636Z,2.70
2023-03-12T22:06:05.396Z,2.40
2023-03-12T22:08:32.603Z,2.00
2023-03-12T22:10:59.368Z,1.90
2023-03-12T22:13:26.023Z,1.90
2023-03-12T22:15:59.373Z,1.70
2023-03-12T22:18:27.791Z,1.80
2023-03-12T22:21:00.966Z,1.90
2023-03-12T22:23:28.486Z,1.70
2023-03-12T22:25:55.402Z,1.80
2023-03-12T22:28:25.280Z,1.50
2023-03-12T22:31:05.723Z,1.50
2023-03-12T22:33:35.010Z,1.50
2023-03-12T22:36:07.325Z,1.50
2023-03-12T22:38:38.583Z,1.50
2023-03-12T22:41:18.636Z,1.40
2023-03-12T22:43:47.440Z,1.30
2023-03-12T22:46:15.775Z,1.10
2023-03-12T22:48:44.093Z,1.10
2023-03-12T22:51:10.922Z,1.10
2023-03-12T22:53:37.836Z,1.10
2023-03-12T22:56:08.723Z,1.10
2023-03-12T22:58:35.751Z,1.20
2023-03-12T23:01:22.851Z,1.20
2023-03-12T23:03:50.811Z,1.30
2023-03-12T23:06:26.982Z,1.20
2023-03-12T23:08:56.379Z,1.20
2023-03-12T23:11:25.156Z,1.10
2023-03-12T23:13:53.223Z,1.20
2023-03-12T23:16:23.717Z,1.40
2023-03-12T23:18:50.558Z,1.50
2023-03-12T23:21:22.893Z,1.60
2023-03-12T23:23:50.694Z,1.70
2023-03-12T23:26:25.667Z,1.80
2023-03-12T23:28:58.176Z,1.80
2023-03-12T23:31:26.847Z,1.90
2023-03-12T23:33:53.818Z,2.00
2023-03-12T23:36:22.831Z,2.10
2023-03-12T23:38:50.207Z,2.10
2023-03-12T23:41:30.501Z,2.20
2023-03-12T23:43:57.921Z,2.30
2023-03-12T23:46:26.450Z,2.40
2023-03-12T23:48:54.005Z,2.40
2023-03-12T23:51:27.573Z,2.30
2023-03-12T23:54:04.459Z,2.30
2023-03-12T23:56:35.479Z,2.30
2023-03-12T23:59:03.428Z,2.30
